createdAt,value
2019-05-26T00:01:37.361Z,97.10
2019-05-26T00:04:04.922Z,97.00
2019-05-26T00:06:33.962Z,97.10
2019-05-26T00:09:01.692Z,97.10
2019-05-26T00:11:29.653Z,97.10
2019-05-26T00:13:59.742Z,97.10
2019-05-26T00:16:27.819Z,97.40
2019-05-26T00:18:55.395Z,97.40
2019-05-26T00:21:22.964Z,97.30
2019-05-26T00:23:50.601Z,97.30
2019-05-26T00:26:18.209Z,97.40
2019-05-26T00:28:46.759Z,97.40
2019-05-26T00:31:14.734Z,97.40
2019-05-26T00:33:42.269Z,97.40
2019-05-26T00:36:09.855Z,97.40
2019-05-26T00:38:38.438Z,97.40
2019-05-26T00:41:06.204Z,97.40
2019-05-26T00:43:33.629Z,97.20
2019-05-26T00:46:01.142Z,97.10
2019-05-26T00:48:28.597Z,96.90
2019-05-26T00:50:56.239Z,96.90
2019-05-26T00:53:23.717Z,96.70
2019-05-26T00:55:51.254Z,96.80
2019-05-26T00:58:18.732Z,96.70
2019-05-26T01:01:04.564Z,96.60
2019-05-26T01:03:33.914Z,96.60
2019-05-26T01:06:01.596Z,96.60
2019-05-26T01:08:29.145Z,96.80
2019-05-26T01:10:56.757Z,96.50
2019-05-26T01:13:25.291Z,96.30
2019-05-26T01:15:52.923Z,96.30
2019-05-26T01:18:20.436Z,96.20
2019-05-26T01:20:48.044Z,96.50
2019-05-26T01:23:15.859Z,96.60
2019-05-26T01:25:43.438Z,96.80
2019-05-26T01:28:10.958Z,97.10
2019-05-26T01:30:38.792Z,97.30
2019-05-26T01:33:06.731Z,97.40
2019-05-26T01:35:38.252Z,97.40
2019-05-26T01:38:22.675Z,97.40
2019-05-26T01:40:37.813Z,97.40
2019-05-26T01:43:05.412Z,97.40
2019-05-26T01:45:32.869Z,97.40
2019-05-26T01:48:00.360Z,97.40
2019-05-26T01:50:27.970Z,97.40
2019-05-26T01:52:55.426Z,97.40
2019-05-26T01:55:22.982Z,97.40
2019-05-26T01:57:50.465Z,97.40
2019-05-26T02:00:18.134Z,97.40
2019-05-26T02:02:45.704Z,97.40
2019-05-26T02:05:13.377Z,97.40
2019-05-26T02:07:40.893Z,97.20
2019-05-26T02:10:08.690Z,97.30
2019-05-26T02:12:37.162Z,97.10
2019-05-26T02:15:06.230Z,96.90
2019-05-26T02:17:33.783Z,97.10
2019-05-26T02:20:01.303Z,97.30
2019-05-26T02:22:29.042Z,97.40
2019-05-26T02:24:56.686Z,97.40
2019-05-26T02:27:24.364Z,97.40
2019-05-26T02:29:51.903Z,97.40
2019-05-26T02:32:19.455Z,97.40
2019-05-26T02:34:47.208Z,97.40
2019-05-26T02:37:14.894Z,97.20
2019-05-26T02:39:42.446Z,97.10
2019-05-26T02:42:10.012Z,97.40
2019-05-26T02:44:37.672Z,97.40
2019-05-26T02:47:05.413Z,97.40
2019-05-26T02:49:32.935Z,97.40
2019-05-26T02:52:00.567Z,97.30
2019-05-26T02:54:28.123Z,96.80
2019-05-26T02:56:55.701Z,96.70
2019-05-26T02:59:23.199Z,96.60
2019-05-26T03:02:03.256Z,96.50
2019-05-26T03:04:20.119Z,96.50
2019-05-26T03:06:49.267Z,96.50
2019-05-26T03:09:23.212Z,96.60
2019-05-26T03:11:51.635Z,96.70
2019-05-26T03:14:20.166Z,96.60
2019-05-26T03:16:50.529Z,96.60
2019-05-26T03:19:19.017Z,96.60
2019-05-26T03:21:48.191Z,96.60
2019-05-26T03:24:18.068Z,96.70
2019-05-26T03:26:45.647Z,96.80
2019-05-26T03:29:13.336Z,96.80
2019-05-26T03:31:40.797Z,96.70
2019-05-26T03:34:08.377Z,96.70
2019-05-26T03:36:35.898Z,96.70
2019-05-26T03:39:04.978Z,96.70
2019-05-26T03:41:32.668Z,96.80
2019-05-26T03:44:00.119Z,97.00
2019-05-26T03:46:27.730Z,97.30
2019-05-26T03:48:55.194Z,97.40
2019-05-26T03:51:22.709Z,97.40
2019-05-26T03:53:50.148Z,97.40
2019-05-26T03:56:17.688Z,97.40
2019-05-26T03:58:45.290Z,97.40
2019-05-26T04:01:13.143Z,97.40
2019-05-26T04:03:40.807Z,97.20
2019-05-26T04:06:08.370Z,96.90
2019-05-26T04:08:35.903Z,97.00
2019-05-26T04:11:03.553Z,97.00
2019-05-26T04:13:31.162Z,97.20
2019-05-26T04:15:58.786Z,97.20
2019-05-26T04:18:26.259Z,97.20
2019-05-26T04:20:53.938Z,96.90
2019-05-26T04:23:21.707Z,96.90
2019-05-26T04:25:49.319Z,96.80
2019-05-26T04:28:17.114Z,96.40
2019-05-26T04:30:44.581Z,95.90
2019-05-26T04:33:12.182Z,95.30
2019-05-26T04:35:39.757Z,95.30
2019-05-26T04:38:07.480Z,94.80
2019-05-26T04:40:36.171Z,94.70
2019-05-26T04:43:03.680Z,94.40
2019-05-26T04:45:31.294Z,94.50
2019-05-26T04:47:58.843Z,94.50
2019-05-26T04:50:27.296Z,94.90
2019-05-26T04:53:06.169Z,95.00
2019-05-26T04:55:24.370Z,95.20
2019-05-26T04:57:51.857Z,95.60
2019-05-26T05:00:20.427Z,95.80
2019-05-26T05:02:48.113Z,95.60
2019-05-26T05:05:15.593Z,95.80
2019-05-26T05:07:43.079Z,96.00
2019-05-26T05:10:10.614Z,96.10
2019-05-26T05:12:38.182Z,96.00
2019-05-26T05:15:06.688Z,95.60
2019-05-26T05:17:34.247Z,95.40
2019-05-26T05:20:02.059Z,94.30
2019-05-26T05:22:29.729Z,94.00
2019-05-26T05:24:57.642Z,93.90
2019-05-26T05:27:25.296Z,93.50
2019-05-26T05:29:52.832Z,94.00
2019-05-26T05:32:20.433Z,94.40
2019-05-26T05:34:48.031Z,93.60
2019-05-26T05:37:15.732Z,93.50
2019-05-26T05:39:43.532Z,93.40
2019-05-26T05:42:11.196Z,93.10
2019-05-26T05:44:38.812Z,92.90
2019-05-26T05:47:06.403Z,92.30
2019-05-26T05:49:33.993Z,92.20
2019-05-26T05:52:01.487Z,92.30
2019-05-26T05:54:29.024Z,92.30
2019-05-26T05:56:56.551Z,92.10
2019-05-26T05:59:24.299Z,92.20
2019-05-26T06:01:51.880Z,92.10
2019-05-26T06:04:19.524Z,91.70
2019-05-26T06:06:47.402Z,91.60
2019-05-26T06:09:15.082Z,91.30
2019-05-26T06:11:42.656Z,91.40
2019-05-26T06:14:10.312Z,91.30
2019-05-26T06:16:39.030Z,90.50
2019-05-26T06:19:06.645Z,91.20
2019-05-26T06:21:34.248Z,91.10
2019-05-26T06:24:01.904Z,90.10
2019-05-26T06:26:29.610Z,90.40
2019-05-26T06:28:57.216Z,89.00
2019-05-26T06:31:24.914Z,90.10
2019-05-26T06:33:52.513Z,87.90
2019-05-26T06:36:20.078Z,89.70
2019-05-26T06:38:47.750Z,89.20
2019-05-26T06:41:31.883Z,88.20
2019-05-26T06:43:44.800Z,86.20
2019-05-26T06:46:12.342Z,85.50
2019-05-26T06:48:39.917Z,87.50
2019-05-26T06:51:07.461Z,84.00
2019-05-26T06:53:37.570Z,83.60
2019-05-26T06:56:04.714Z,83.20
2019-05-26T06:58:32.350Z,81.70
2019-05-26T07:01:01.365Z,77.40
2019-05-26T07:03:29.287Z,80.00
2019-05-26T07:05:56.863Z,78.20
2019-05-26T07:08:24.899Z,75.90
2019-05-26T07:10:52.452Z,75.20
2019-05-26T07:13:20.016Z,74.10
2019-05-26T07:15:48.656Z,75.40
2019-05-26T07:18:16.235Z,73.50
2019-05-26T07:20:43.907Z,71.10
2019-05-26T07:23:11.609Z,70.70
2019-05-26T07:25:39.224Z,69.10
2019-05-26T07:28:06.681Z,73.00
2019-05-26T07:30:34.423Z,76.50
2019-05-26T07:33:01.934Z,73.00
2019-05-26T07:35:32.706Z,72.20
2019-05-26T07:37:58.992Z,70.90
2019-05-26T07:40:26.487Z,65.10
2019-05-26T07:42:55.173Z,65.70
2019-05-26T07:45:22.652Z,64.80
2019-05-26T07:47:50.143Z,66.60
2019-05-26T07:50:17.621Z,65.10
2019-05-26T07:52:45.311Z,62.50
2019-05-26T07:55:14.550Z,63.30
2019-05-26T07:57:42.362Z,62.70
2019-05-26T08:00:10.390Z,60.50
2019-05-26T08:02:38.037Z,59.00
2019-05-26T08:05:05.697Z,60.70
2019-05-26T08:07:33.223Z,62.30
2019-05-26T08:10:00.796Z,59.20
2019-05-26T08:12:30.548Z,59.30
2019-05-26T08:14:57.879Z,59.00
2019-05-26T08:17:25.382Z,58.40
2019-05-26T08:19:53.045Z,56.60
2019-05-26T08:22:20.570Z,57.80
2019-05-26T08:24:48.062Z,55.10
2019-05-26T08:27:15.622Z,59.00
2019-05-26T08:29:43.241Z,55.40
2019-05-26T08:32:10.887Z,56.60
2019-05-26T08:34:38.466Z,57.50
2019-05-26T08:37:05.988Z,55.50
2019-05-26T08:39:33.860Z,53.10
2019-05-26T08:42:01.419Z,53.50
2019-05-26T08:44:28.889Z,53.90
2019-05-26T08:46:56.434Z,52.90
2019-05-26T08:49:25.184Z,55.10
2019-05-26T08:51:52.764Z,55.10
2019-05-26T08:54:20.284Z,53.50
2019-05-26T08:56:47.801Z,53.50
2019-05-26T08:59:28.917Z,53.20
2019-05-26T09:01:56.626Z,51.70
2019-05-26T09:04:24.099Z,49.90
2019-05-26T09:06:51.719Z,50.30
2019-05-26T09:09:19.078Z,47.20
2019-05-26T09:11:46.618Z,47.80
2019-05-26T09:14:14.130Z,47.60
2019-05-26T09:16:41.829Z,47.30
2019-05-26T09:19:09.461Z,49.30
2019-05-26T09:21:36.942Z,47.90
2019-05-26T09:24:04.436Z,48.80
2019-05-26T09:26:32.519Z,49.00
2019-05-26T09:29:00.103Z,51.00
2019-05-26T09:31:27.690Z,49.60
2019-05-26T09:33:55.232Z,46.10
2019-05-26T09:36:22.870Z,47.30
2019-05-26T09:38:50.366Z,47.20
2019-05-26T09:41:17.893Z,48.70
2019-05-26T09:43:45.381Z,48.70
2019-05-26T09:46:12.976Z,48.10
2019-05-26T09:48:41.577Z,47.20
2019-05-26T09:51:09.452Z,46.40
2019-05-26T09:53:37.639Z,47.30
2019-05-26T09:56:05.200Z,44.00
2019-05-26T09:58:32.787Z,43.60
2019-05-26T10:01:00.280Z,41.50
2019-05-26T10:03:28.434Z,39.80
2019-05-26T10:05:55.893Z,39.50
2019-05-26T10:08:23.448Z,39.20
2019-05-26T10:10:51.005Z,39.40
2019-05-26T10:13:30.888Z,38.50
2019-05-26T10:15:48.025Z,39.20
2019-05-26T10:18:15.516Z,40.30
2019-05-26T10:20:43.042Z,40.00
2019-05-26T10:23:10.526Z,38.50
2019-05-26T10:25:38.006Z,40.00
2019-05-26T10:28:05.853Z,36.90
2019-05-26T10:30:33.322Z,37.30
2019-05-26T10:33:01.001Z,37.70
2019-05-26T10:35:28.843Z,32.50
2019-05-26T10:37:56.338Z,31.90
2019-05-26T10:40:23.841Z,32.50
2019-05-26T10:42:51.319Z,29.90
2019-05-26T10:45:18.870Z,31.60
2019-05-26T10:47:46.397Z,33.90
2019-05-26T10:50:15.425Z,33.40
2019-05-26T10:52:43.037Z,33.40
2019-05-26T10:55:10.829Z,31.30
2019-05-26T10:57:38.336Z,30.40
2019-05-26T11:00:06.573Z,30.40
2019-05-26T11:02:34.343Z,32.80
2019-05-26T11:05:01.916Z,29.60
2019-05-26T11:07:29.546Z,30.60
2019-05-26T11:09:57.095Z,29.80
2019-05-26T11:12:24.584Z,28.80
2019-05-26T11:14:52.168Z,27.80
2019-05-26T11:17:19.774Z,28.50
2019-05-26T11:19:47.341Z,29.50
2019-05-26T11:22:14.794Z,29.10
2019-05-26T11:24:42.392Z,28.70
2019-05-26T11:27:12.696Z,28.60
2019-05-26T11:29:39.470Z,28.00
2019-05-26T11:32:07.079Z,28.40
2019-05-26T11:34:34.666Z,29.70
2019-05-26T11:37:03.174Z,31.90
2019-05-26T11:39:30.791Z,29.00
2019-05-26T11:42:12.202Z,29.10
2019-05-26T11:44:27.714Z,28.80
2019-05-26T11:46:55.231Z,28.70
2019-05-26T11:49:22.817Z,27.00
2019-05-26T11:51:50.327Z,27.50
2019-05-26T11:54:18.497Z,28.50
2019-05-26T11:56:46.219Z,29.20
2019-05-26T11:59:13.822Z,28.30
2019-05-26T12:01:41.708Z,27.10
2019-05-26T12:04:09.310Z,26.30
2019-05-26T12:06:36.841Z,26.30
2019-05-26T12:09:06.971Z,26.70
2019-05-26T12:11:34.533Z,27.60
2019-05-26T12:14:02.082Z,27.10
2019-05-26T12:16:29.580Z,28.20
2019-05-26T12:18:57.066Z,29.00
2019-05-26T12:21:24.624Z,29.30
2019-05-26T12:23:54.892Z,28.60
2019-05-26T12:26:21.564Z,29.00
2019-05-26T12:28:49.305Z,28.20
2019-05-26T12:31:16.869Z,28.30
2019-05-26T12:33:44.355Z,29.60
2019-05-26T12:36:11.991Z,31.30
2019-05-26T12:38:50.161Z,28.10
2019-05-26T12:41:19.188Z,28.30
2019-05-26T12:43:46.689Z,30.40
2019-05-26T12:46:14.533Z,28.60
2019-05-26T12:48:42.254Z,28.20
2019-05-26T12:51:09.779Z,27.20
2019-05-26T12:53:37.526Z,28.60
2019-05-26T12:56:05.089Z,28.20
2019-05-26T12:58:32.618Z,28.30
2019-05-26T13:01:00.286Z,28.80
2019-05-26T13:03:41.174Z,32.40
2019-05-26T13:06:09.529Z,29.90
2019-05-26T13:08:37.114Z,31.00
2019-05-26T13:11:04.658Z,30.90
2019-05-26T13:13:32.242Z,30.60
2019-05-26T13:15:59.933Z,30.90
2019-05-26T13:18:27.822Z,31.80
2019-05-26T13:20:55.319Z,32.20
2019-05-26T13:23:22.854Z,32.10
2019-05-26T13:25:50.337Z,31.90
2019-05-26T13:28:17.991Z,33.30
2019-05-26T13:30:45.502Z,31.30
2019-05-26T13:33:13.255Z,31.00
2019-05-26T13:35:40.828Z,30.70
2019-05-26T13:38:08.526Z,31.80
2019-05-26T13:40:36.129Z,32.40
2019-05-26T13:43:03.863Z,31.90
2019-05-26T13:45:33.941Z,31.00
2019-05-26T13:48:00.875Z,31.20
2019-05-26T13:50:28.386Z,32.80
2019-05-26T13:52:56.209Z,30.90
2019-05-26T13:55:24.125Z,32.20
2019-05-26T13:57:51.806Z,32.50
2019-05-26T14:00:22.382Z,34.40
2019-05-26T14:02:50.514Z,33.30
2019-05-26T14:05:18.211Z,33.90
2019-05-26T14:07:45.959Z,32.70
2019-05-26T14:10:15.564Z,32.40
2019-05-26T14:12:43.180Z,31.50
2019-05-26T14:15:10.978Z,32.40
2019-05-26T14:17:38.516Z,30.40
2019-05-26T14:20:06.759Z,30.90
2019-05-26T14:22:34.196Z,31.80
2019-05-26T14:25:01.656Z,33.00
2019-05-26T14:27:29.095Z,33.90
2019-05-26T14:29:56.547Z,31.90
2019-05-26T14:32:24.394Z,33.90
2019-05-26T14:34:51.816Z,32.10
2019-05-26T14:37:19.319Z,33.60
2019-05-26T14:39:49.875Z,33.30
2019-05-26T14:42:16.173Z,32.70
2019-05-26T14:44:43.626Z,34.50
2019-05-26T14:47:11.084Z,33.40
2019-05-26T14:49:38.564Z,32.20
2019-05-26T14:52:06.075Z,34.70
2019-05-26T14:54:33.614Z,33.70
2019-05-26T14:57:01.223Z,34.50
2019-05-26T14:59:28.718Z,33.70
2019-05-26T15:01:57.969Z,34.40
2019-05-26T15:04:25.291Z,33.00
2019-05-26T15:06:52.736Z,34.80
2019-05-26T15:09:25.285Z,34.70
2019-05-26T15:11:49.562Z,35.30
2019-05-26T15:14:17.086Z,33.90
2019-05-26T15:16:44.544Z,34.10
2019-05-26T15:19:12.062Z,34.40
2019-05-26T15:21:39.580Z,34.40
2019-05-26T15:24:07.076Z,34.20
2019-05-26T15:26:34.549Z,34.10
2019-05-26T15:29:02.022Z,34.50
2019-05-26T15:31:29.450Z,34.40
2019-05-26T15:33:56.955Z,36.30
2019-05-26T15:36:24.410Z,36.00
2019-05-26T15:38:53.056Z,34.50
2019-05-26T15:41:20.604Z,35.10
2019-05-26T15:43:48.117Z,35.10
2019-05-26T15:46:24.858Z,35.60
2019-05-26T15:48:44.986Z,37.30
2019-05-26T15:51:13.665Z,36.90
2019-05-26T15:53:41.126Z,37.30
2019-05-26T15:56:08.587Z,36.60
2019-05-26T15:58:36.032Z,37.40
2019-05-26T16:01:03.443Z,36.50
2019-05-26T16:03:30.898Z,36.80
2019-05-26T16:05:58.419Z,34.50
2019-05-26T16:08:25.922Z,35.40
2019-05-26T16:10:53.397Z,35.30
2019-05-26T16:13:21.103Z,35.40
2019-05-26T16:15:49.734Z,35.10
2019-05-26T16:18:17.430Z,35.60
2019-05-26T16:20:44.850Z,35.10
2019-05-26T16:23:12.478Z,36.60
2019-05-26T16:25:40.294Z,37.60
2019-05-26T16:28:07.704Z,36.80
2019-05-26T16:30:35.184Z,37.60
2019-05-26T16:33:02.970Z,36.00
2019-05-26T16:35:30.642Z,35.00
2019-05-26T16:37:58.189Z,35.40
2019-05-26T16:40:25.662Z,35.60
2019-05-26T16:42:53.123Z,36.30
2019-05-26T16:45:20.713Z,38.30
2019-05-26T16:47:48.216Z,35.90
2019-05-26T16:50:15.689Z,38.60
2019-05-26T16:52:44.462Z,37.60
2019-05-26T16:55:11.987Z,37.70
2019-05-26T16:57:39.573Z,38.60
2019-05-26T17:00:07.431Z,36.50
2019-05-26T17:02:35.089Z,37.10
2019-05-26T17:05:02.739Z,36.80
2019-05-26T17:07:31.385Z,36.90
2019-05-26T17:09:58.971Z,37.60
2019-05-26T17:12:26.864Z,35.60
2019-05-26T17:14:54.421Z,36.30
2019-05-26T17:17:21.970Z,35.40
2019-05-26T17:19:52.631Z,36.00
2019-05-26T17:22:18.807Z,36.90
2019-05-26T17:24:46.230Z,37.10
2019-05-26T17:27:13.883Z,38.60
2019-05-26T17:29:41.581Z,39.10
2019-05-26T17:32:09.126Z,39.10
2019-05-26T17:34:36.591Z,39.40
2019-05-26T17:37:04.214Z,39.20
2019-05-26T17:39:31.758Z,39.10
2019-05-26T17:41:59.434Z,38.50
2019-05-26T17:44:26.977Z,39.70
2019-05-26T17:46:58.371Z,39.40
2019-05-26T17:49:30.134Z,38.90
2019-05-26T17:51:59.440Z,39.10
2019-05-26T17:54:26.830Z,39.10
2019-05-26T17:56:54.319Z,39.70
2019-05-26T17:59:21.840Z,40.00
2019-05-26T18:01:49.433Z,40.10
2019-05-26T18:04:16.972Z,40.10
2019-05-26T18:06:44.629Z,39.80
2019-05-26T18:09:12.107Z,40.50
2019-05-26T18:11:39.739Z,41.40
2019-05-26T18:14:07.237Z,41.40
2019-05-26T18:16:34.889Z,41.80
2019-05-26T18:19:02.462Z,42.30
2019-05-26T18:21:29.916Z,41.80
2019-05-26T18:23:57.360Z,42.30
2019-05-26T18:26:24.917Z,42.70
2019-05-26T18:28:52.550Z,42.70
2019-05-26T18:31:20.044Z,42.30
2019-05-26T18:33:47.589Z,42.60
2019-05-26T18:36:15.116Z,43.00
2019-05-26T18:38:42.606Z,43.30
2019-05-26T18:41:10.070Z,44.60
2019-05-26T18:43:37.703Z,45.00
2019-05-26T18:46:05.228Z,44.90
2019-05-26T18:48:32.688Z,44.70
2019-05-26T18:51:00.204Z,45.30
2019-05-26T18:53:29.782Z,45.80
2019-05-26T18:55:57.032Z,45.80
2019-05-26T18:58:24.710Z,46.10
2019-05-26T19:00:52.269Z,45.90
2019-05-26T19:03:20.836Z,45.50
2019-05-26T19:05:49.525Z,45.30
2019-05-26T19:08:17.015Z,47.60
2019-05-26T19:10:44.591Z,49.00
2019-05-26T19:13:12.185Z,51.10
2019-05-26T19:15:39.845Z,52.00
2019-05-26T19:18:19.236Z,52.50
2019-05-26T19:20:36.859Z,51.90
2019-05-26T19:23:05.425Z,53.40
2019-05-26T19:25:33.239Z,54.90
2019-05-26T19:28:01.051Z,55.50
2019-05-26T19:30:28.542Z,55.70
2019-05-26T19:32:56.090Z,56.60
2019-05-26T19:35:23.693Z,57.50
2019-05-26T19:37:51.189Z,58.10
2019-05-26T19:40:19.077Z,58.30
2019-05-26T19:42:46.722Z,59.00
2019-05-26T19:45:14.201Z,59.50
2019-05-26T19:47:41.753Z,60.10
2019-05-26T19:50:09.799Z,61.20
2019-05-26T19:52:37.460Z,61.40
2019-05-26T19:55:05.151Z,62.20
2019-05-26T19:57:32.664Z,63.70
2019-05-26T20:00:00.372Z,65.10
2019-05-26T20:02:27.830Z,66.40
2019-05-26T20:04:55.390Z,66.30
2019-05-26T20:07:22.974Z,66.10
2019-05-26T20:09:50.482Z,66.40
2019-05-26T20:12:18.078Z,66.30
2019-05-26T20:14:45.660Z,65.30
2019-05-26T20:17:13.293Z,64.60
2019-05-26T20:19:40.834Z,65.00
2019-05-26T20:22:08.381Z,65.90
2019-05-26T20:24:36.020Z,67.40
2019-05-26T20:27:03.687Z,67.70
2019-05-26T20:29:31.098Z,65.50
2019-05-26T20:31:58.582Z,61.40
2019-05-26T20:34:26.065Z,62.00
2019-05-26T20:36:53.600Z,63.50
2019-05-26T20:39:21.095Z,65.30
2019-05-26T20:41:48.642Z,66.40
2019-05-26T20:44:16.165Z,67.60
2019-05-26T20:46:43.749Z,67.20
2019-05-26T20:49:11.279Z,68.30
2019-05-26T20:51:38.754Z,68.50
2019-05-26T20:54:06.250Z,68.70
2019-05-26T20:56:33.743Z,69.20
2019-05-26T20:59:01.265Z,70.20
2019-05-26T21:01:28.986Z,70.50
2019-05-26T21:03:56.483Z,71.70
2019-05-26T21:06:23.998Z,72.00
2019-05-26T21:08:51.469Z,72.60
2019-05-26T21:11:19.201Z,73.30
2019-05-26T21:13:46.733Z,74.10
2019-05-26T21:16:17.072Z,74.10
2019-05-26T21:18:44.634Z,74.50
2019-05-26T21:21:12.237Z,75.40
2019-05-26T21:23:39.841Z,75.80
2019-05-26T21:26:07.286Z,76.30
2019-05-26T21:28:34.756Z,76.50
2019-05-26T21:31:02.394Z,76.90
2019-05-26T21:33:29.905Z,77.30
2019-05-26T21:35:57.394Z,77.80
2019-05-26T21:38:24.846Z,78.20
2019-05-26T21:40:53.427Z,78.40
2019-05-26T21:43:20.936Z,78.90
2019-05-26T21:45:49.471Z,79.30
2019-05-26T21:48:17.149Z,79.50
2019-05-26T21:50:44.702Z,79.90
2019-05-26T21:53:12.346Z,79.90
2019-05-26T21:55:39.894Z,79.90
2019-05-26T21:58:07.309Z,80.00
2019-05-26T22:00:45.011Z,80.40
2019-05-26T22:03:14.473Z,80.40
2019-05-26T22:05:41.948Z,80.40
2019-05-26T22:08:09.398Z,81.00
2019-05-26T22:10:37.003Z,80.80
2019-05-26T22:13:04.622Z,81.00
2019-05-26T22:15:32.112Z,80.60
2019-05-26T22:17:59.560Z,80.80
2019-05-26T22:20:27.052Z,81.20
2019-05-26T22:22:54.539Z,81.70
2019-05-26T22:25:22.036Z,81.90
2019-05-26T22:27:49.700Z,82.10
2019-05-26T22:30:17.250Z,82.50
2019-05-26T22:32:44.844Z,82.70
2019-05-26T22:35:12.325Z,83.60
2019-05-26T22:37:39.790Z,84.30
2019-05-26T22:40:07.519Z,84.70
2019-05-26T22:42:35.044Z,84.90
2019-05-26T22:45:05.701Z,85.50
2019-05-26T22:47:33.375Z,85.30
2019-05-26T22:50:00.895Z,86.20
2019-05-26T22:52:28.340Z,86.40
2019-05-26T22:54:55.825Z,86.40
2019-05-26T22:57:23.251Z,86.60
2019-05-26T22:59:50.748Z,86.90
2019-05-26T23:02:18.259Z,86.80
2019-05-26T23:04:45.778Z,86.90
2019-05-26T23:07:13.209Z,86.90
2019-05-26T23:09:40.770Z,86.80
2019-05-26T23:12:08.212Z,86.80
2019-05-26T23:14:35.701Z,86.90
2019-05-26T23:17:03.287Z,86.80
2019-05-26T23:19:31.605Z,86.60
2019-05-26T23:21:59.116Z,87.10
2019-05-26T23:24:26.561Z,87.50
2019-05-26T23:26:54.080Z,87.70
2019-05-26T23:29:21.544Z,88.10
2019-05-26T23:31:49.238Z,88.40
2019-05-26T23:34:17.152Z,88.20
2019-05-26T23:36:44.659Z,88.40
2019-05-26T23:39:12.272Z,88.60
2019-05-26T23:41:40.933Z,88.60
2019-05-26T23:44:08.455Z,88.60
2019-05-26T23:46:35.947Z,88.80
2019-05-26T23:49:03.495Z,89.00
2019-05-26T23:51:30.915Z,89.40
2019-05-26T23:53:58.380Z,89.60
2019-05-26T23:56:25.896Z,89.90
2019-05-26T23:58:53.361Z,90.10
